Time;durP1;ratioP1;P1;durP2;ratioP2;P2;SDS_P1;SDS_P2;PMS_P1;PMS_P2;Temp;Humidity;BMP_temperature;BMP_pressure;BME280_temperature;BME280_humidity;BME280_pressure;Samples;Min_cycle;Max_cycle;Signal;HPM_P1;HPM_P2
2022/07/04 03:46:40;;;;;;;;;;;;;;;22.60;78.01;97182.72;4285287;27;10331;-69
2022/07/04 03:48:43;;;;;;;;;;;;;;;22.86;77.38;97191.78;4275309;27;5579;-69
2022/07/04 03:50:46;;;;;;;;;;;;;;;23.05;77.38;97186.75;4260041;27;5597;-69
2022/07/04 03:52:49;;;;;;;;;;;;;;;23.16;77.21;97175.75;4279156;27;5582;-69
2022/07/04 03:54:52;;;;;;;;;;;;;;;23.27;77.10;97181.19;4275316;27;5879;-70
2022/07/04 03:56:55;;;;;;;;;;;;;;;23.39;77.03;97211.44;4282438;27;5590;-70
2022/07/04 03:58:58;;;;;;;;;;;;;;;23.51;76.85;97220.09;4274308;27;5584;-70
2022/07/04 04:01:01;;;;;;;;;;;;;;;23.60;76.50;97215.84;4280299;27;5579;-69
2022/07/04 04:05:26;;;;;;;;;;;;;;;23.66;76.92;97213.94;4275551;27;6572;-70
2022/07/04 04:05:27;;;;;;;;;;;;;;;23.74;76.80;97202.66;4274530;27;5590;-70
2022/07/04 04:07:30;;;;;;;;;;;;;;;23.79;76.90;97211.56;4282990;27;5615;-69
2022/07/04 04:09:33;;;;;;;;;;;;;;;23.81;77.25;97222.09;4279183;27;5595;-70
2022/07/04 04:11:36;;;;;;;;;;;;;;;23.79;77.07;97227.78;4280793;27;5563;-70
2022/07/04 04:13:59;;;;;;;;;;;;;;;23.84;76.97;97239.66;4263129;27;5593;-70
2022/07/04 04:16:17;;;;;;;;;;;;;;;23.85;76.96;97235.88;4262821;27;5562;-70
2022/07/04 04:18:22;;;;;;;;;;;;;;;23.86;77.16;97227.50;4272675;27;5676;-70
2022/07/04 04:20:24;;;;;;;;;;;;;;;23.86;77.35;97224.00;4278534;27;5699;-70
2022/07/04 04:22:28;;;;;;;;;;;;;;;23.89;77.72;97239.66;4277864;27;5578;-70
2022/07/04 04:24:31;;;;;;;;;;;;;;;23.88;77.21;97240.72;4281746;27;5638;-70
2022/07/04 04:26:35;;;;;;;;;;;;;;;23.90;77.64;97239.41;4271086;27;5682;-70
2022/07/04 04:28:37;;;;;;;;;;;;;;;23.90;77.64;97238.56;4281785;27;5669;-70
2022/07/04 04:30:40;;;;;;;;;;;;;;;23.93;77.67;97248.84;4282726;27;5563;-70
2022/07/04 04:32:44;;;;;;;;;;;;;;;23.97;77.65;97242.63;4282175;27;5684;-71
2022/07/04 04:34:48;;;;;;;;;;;;;;;23.98;77.33;97236.16;4262855;27;5602;-75
2022/07/04 04:36:51;;;;;;;;;;;;;;;24.01;77.38;97226.69;4276986;27;5576;-71
2022/07/04 04:38:54;;;;;;;;;;;;;;;24.03;77.57;97209.16;4281029;27;5108;-71
2022/07/04 04:40:56;;;;;;;;;;;;;;;24.06;78.00;97205.13;4277002;27;5706;-72
2022/07/04 04:42:59;;;;;;;;;;;;;;;24.07;77.81;97218.34;4280156;27;5595;-70
2022/07/04 04:45:03;;;;;;;;;;;;;;;24.06;77.29;97221.31;4281102;27;5690;-70
2022/07/04 04:47:06;;;;;;;;;;;;;;;24.07;77.85;97217.53;4272625;27;5644;-70
2022/07/04 04:49:08;;;;;;;;;;;;;;;24.07;77.63;97217.53;4269265;27;6270;-70
2022/07/04 04:51:13;;;;;;;;;;;;;;;24.07;77.93;97212.13;4268927;27;5566;-70
2022/07/04 04:53:16;;;;;;;;;;;;;;;24.05;77.48;97215.09;4264909;27;5919;-72
2022/07/04 04:55:19;;;;;;;;;;;;;;;24.05;77.68;97211.59;4258482;27;5575;-68
2022/07/04 04:57:22;;;;;;;;;;;;;;;24.08;77.47;97211.06;4264126;27;5591;-67
2022/07/04 04:59:24;;;;;;;;;;;;;;;24.10;77.75;97203.47;4257019;27;6256;-66
2022/07/04 05:01:27;;;;;;;;;;;;;;;24.13;77.71;97199.47;4267976;27;5563;-67
2022/07/04 05:03:45;;;;;;;;;;;;;;;24.15;77.87;97192.69;4253819;27;5602;-69
2022/07/04 05:05:48;;;;;;;;;;;;;;;24.18;77.80;97192.16;4259079;27;5589;-67
2022/07/04 05:07:55;;;;;;;;;;;;;;;24.19;77.43;97185.66;4258862;27;5798;-68
2022/07/04 05:09:59;;;;;;;;;;;;;;;24.18;77.52;97184.06;4268083;27;5096;-68
2022/07/04 05:12:02;;;;;;;;;;;;;;;24.21;77.21;97188.91;4258882;27;5556;-67
2022/07/04 05:14:05;;;;;;;;;;;;;;;24.23;77.48;97189.44;4265061;27;5670;-66
2022/07/04 05:16:08;;;;;;;;;;;;;;;24.21;77.24;97185.38;4264009;27;5721;-70
2022/07/04 05:18:11;;;;;;;;;;;;;;;24.20;77.54;97187.28;4266371;27;5576;-71
2022/07/04 05:20:14;;;;;;;;;;;;;;;24.23;77.54;97194.84;4241809;27;5787;-69
2022/07/04 05:22:17;;;;;;;;;;;;;;;24.31;77.07;97198.94;4269621;27;5568;-69
2022/07/04 05:24:23;;;;;;;;;;;;;;;24.33;77.10;97189.47;4268522;27;5575;-77
2022/07/04 05:26:26;;;;;;;;;;;;;;;24.37;77.21;97190.56;4266671;27;5083;-71
2022/07/04 05:28:29;;;;;;;;;;;;;;;24.41;77.18;97195.41;4263468;27;5757;-67
2022/07/04 05:30:32;;;;;;;;;;;;;;;24.43;77.20;97198.66;4249385;27;5699;-67
2022/07/04 05:32:35;;;;;;;;;;;;;;;24.46;76.99;97204.31;4269179;27;5722;-68
2022/07/04 05:34:38;;;;;;;;;;;;;;;24.47;76.76;97208.66;4268108;27;5666;-63
2022/07/04 05:36:41;;;;;;;;;;;;;;;24.49;77.10;97211.09;4260685;27;5625;-68
2022/07/04 05:38:44;;;;;;;;;;;;;;;24.50;76.56;97208.09;4268050;27;5571;-68
2022/07/04 05:40:48;;;;;;;;;;;;;;;24.50;76.56;97204.59;4267970;27;7670;-68
2022/07/04 05:42:51;;;;;;;;;;;;;;;24.50;76.35;97205.41;4267098;27;5583;-68
2022/07/04 05:44:54;;;;;;;;;;;;;;;24.50;76.14;97201.91;4265578;27;5822;-67
2022/07/04 05:46:57;;;;;;;;;;;;;;;24.49;75.77;97197.56;4260845;27;5778;-67
2022/07/04 05:49:00;;;;;;;;;;;;;;;24.55;75.83;97199.16;4266108;27;5790;-68
2022/07/04 05:51:03;;;;;;;;;;;;;;;24.58;75.87;97196.75;4269752;27;6157;-68
2022/07/04 05:53:06;;;;;;;;;;;;;;;24.54;75.35;97192.16;4269631;27;5077;-68
2022/07/04 05:55:10;;;;;;;;;;;;;;;24.46;75.31;97188.09;4269479;27;5749;-68
2022/07/04 05:57:14;;;;;;;;;;;;;;;24.52;75.29;97178.91;4265588;27;5555;-68
2022/07/04 05:59:17;;;;;;;;;;;;;;;24.67;75.15;97186.97;4265873;27;5867;-69
2022/07/04 06:01:20;;;;;;;;;;;;;;;24.80;73.97;97182.09;4268621;27;5650;-68
2022/07/04 06:03:23;;;;;;;;;;;;;;;24.86;74.04;97183.69;4268687;27;5559;-68
2022/07/04 06:05:26;;;;;;;;;;;;;;;25.01;73.67;97166.59;4266076;27;5709;-69
2022/07/04 06:07:29;;;;;;;;;;;;;;;25.19;73.27;97179.56;4253905;27;6309;-70
2022/07/04 06:09:32;;;;;;;;;;;;;;;25.27;73.26;97175.47;4268202;27;5563;-68
2022/07/04 06:11:35;;;;;;;;;;;;;;;25.28;73.46;97188.72;4266618;27;5571;-68
2022/07/04 06:13:40;;;;;;;;;;;;;;;25.25;73.00;97183.84;4268778;27;5559;-67
2022/07/04 06:15:43;;;;;;;;;;;;;;;25.27;72.80;97187.09;4250198;27;5700;-68
2022/07/04 06:17:46;;;;;;;;;;;;;;;25.31;73.00;97198.19;4266364;27;6018;-68
2022/07/04 06:19:49;;;;;;;;;;;;;;;25.32;72.60;97195.19;4269430;27;5681;-67
2022/07/04 06:21:52;;;;;;;;;;;;;;;25.30;72.54;97197.38;4244736;27;5699;-68
2022/07/04 06:23:57;;;;;;;;;;;;;;;25.29;72.66;97201.16;4263797;27;5602;-68
2022/07/04 06:26:00;;;;;;;;;;;;;;;25.33;72.42;97213.03;4267674;27;5567;-67
2022/07/04 06:28:03;;;;;;;;;;;;;;;25.37;72.40;97210.56;4255755;27;5563;-69
2022/07/04 06:30:09;;;;;;;;;;;;;;;25.37;71.85;97208.72;4269560;27;5730;-68
2022/07/04 06:32:12;;;;;;;;;;;;;;;25.36;72.06;97209.78;4269057;27;5563;-68
2022/07/04 06:36:36;;;;;;;;;;;;;;;25.42;71.38;97200.56;4255789;27;5704;-67
2022/07/04 06:38:39;;;;;;;;;;;;;;;25.45;71.26;97205.41;4265286;27;5104;-68
2022/07/04 06:40:45;;;;;;;;;;;;;;;25.53;70.79;97195.91;4256817;27;5574;-68
2022/07/04 06:42:49;;;;;;;;;;;;;;;25.59;70.56;97192.06;4262637;27;5580;-68
2022/07/04 06:44:51;;;;;;;;;;;;;;;25.71;70.58;97197.16;4254204;27;5750;-68
2022/07/04 06:46:56;;;;;;;;;;;;;;;25.80;70.10;97200.91;4264476;27;5563;-68
2022/07/04 06:48:59;;;;;;;;;;;;;;;25.90;70.08;97200.84;4249211;27;5591;-68
2022/07/04 06:51:01;;;;;;;;;;;;;;;25.96;69.76;97199.72;4268282;27;5721;-68
2022/07/04 06:53:06;;;;;;;;;;;;;;;26.00;69.43;97194.53;4268065;27;5507;-68
2022/07/04 06:55:10;;;;;;;;;;;;;;;26.05;69.20;97194.53;4268989;27;5665;-68
2022/07/04 06:57:15;;;;;;;;;;;;;;;26.07;68.98;97185.00;4268503;27;5570;-67
2022/07/04 06:59:33;;;;;;;;;;;;;;;26.09;68.42;97182.00;4259681;27;5597;-68
2022/07/04 07:01:36;;;;;;;;;;;;;;;26.04;68.17;97174.72;4265121;27;5578;-67
2022/07/04 07:03:41;;;;;;;;;;;;;;;26.01;68.02;97175.28;4268595;27;5073;-68
2022/07/04 07:05:44;;;;;;;;;;;;;;;26.05;67.87;97159.31;4264246;27;6326;-68
2022/07/04 07:08:04;;;;;;;;;;;;;;;26.06;67.63;97164.44;4254242;27;5676;-68
2022/07/04 07:10:10;;;;;;;;;;;;;;;26.12;66.92;97159.75;4268377;27;5093;-67
2022/07/04 07:12:13;;;;;;;;;;;;;;;26.15;66.80;97152.97;4266146;27;5654;-67
2022/07/04 07:14:16;;;;;;;;;;;;;;;26.12;66.70;97159.75;4252916;27;5690;-69
2022/07/04 07:16:20;;;;;;;;;;;;;;;26.11;66.68;97158.97;4268424;27;5563;-69
2022/07/04 07:18:23;;;;;;;;;;;;;;;26.17;66.33;97156.22;4266509;27;5671;-69
2022/07/04 07:20:27;;;;;;;;;;;;;;;26.21;65.85;97151.84;4251281;27;7652;-69
2022/07/04 07:22:30;;;;;;;;;;;;;;;26.19;65.87;97145.91;4267357;27;5563;-69
2022/07/04 07:24:33;;;;;;;;;;;;;;;26.18;65.86;97149.72;4268890;27;7023;-69
2022/07/04 07:26:36;;;;;;;;;;;;;;;26.18;65.67;97155.94;4268821;27;5684;-69
2022/07/04 07:28:39;;;;;;;;;;;;;;;26.21;65.54;97154.56;4246413;27;5616;-68
2022/07/04 07:30:42;;;;;;;;;;;;;;;26.24;65.23;97151.25;4267614;27;5674;-69
2022/07/04 07:32:47;;;;;;;;;;;;;;;26.28;64.97;97149.63;4267003;27;5630;-69
2022/07/04 07:34:50;;;;;;;;;;;;;;;26.27;64.82;97151.50;4249558;27;5699;-68
2022/07/04 07:36:55;;;;;;;;;;;;;;;26.30;64.22;97158.28;4262596;27;5825;-68
2022/07/04 07:38:58;;;;;;;;;;;;;;;26.29;64.20;97152.03;4266323;27;5814;-68
2022/07/04 07:41:01;;;;;;;;;;;;;;;26.28;63.98;97153.13;4264220;27;5758;-69
2022/07/04 07:43:04;;;;;;;;;;;;;;;26.29;63.75;97151.22;4266766;27;5793;-68
2022/07/04 07:45:08;;;;;;;;;;;;;;;26.31;63.91;97151.75;4272621;27;5549;-69
2022/07/04 07:47:11;;;;;;;;;;;;;;;26.27;63.79;97145.25;4277959;27;5564;-69
2022/07/04 07:49:15;;;;;;;;;;;;;;;26.29;63.53;97151.22;4258813;27;5895;-68
2022/07/04 07:51:18;;;;;;;;;;;;;;;26.30;63.13;97147.44;4265219;27;5926;-69
2022/07/04 07:53:23;;;;;;;;;;;;;;;26.31;63.06;97149.03;4259432;27;7411;-68
2022/07/04 07:55:26;;;;;;;;;;;;;;;26.30;62.88;97155.56;4244182;27;5693;-68
2022/07/04 07:57:30;;;;;;;;;;;;;;;26.27;62.77;97151.50;4234611;27;5692;-68
2022/07/04 07:59:33;;;;;;;;;;;;;;;26.24;62.73;97145.84;4231849;27;5836;-68
2022/07/04 08:01:36;;;;;;;;;;;;;;;26.18;62.66;97147.00;4253405;27;5763;-68
2022/07/04 08:06:03;;;;;;;;;;;;;;;26.01;62.23;97150.09;4248557;27;5751;-68
2022/07/04 08:08:09;;;;;;;;;;;;;;;26.01;62.19;97142.78;4248329;27;5685;-68
2022/07/04 08:10:14;;;;;;;;;;;;;;;26.02;62.37;97149.81;4252770;27;5673;-68
2022/07/04 08:12:17;;;;;;;;;;;;;;;26.06;61.97;97145.47;4265086;27;5666;-68
2022/07/04 08:14:20;;;;;;;;;;;;;;;26.10;61.78;97141.09;4256428;27;5765;-68
2022/07/04 08:16:23;;;;;;;;;;;;;;;26.12;61.93;97146.22;4259909;27;5677;-68
2022/07/04 08:18:46;;;;;;;;;;;;;;;26.10;61.80;97134.88;4258858;27;5697;-68
2022/07/04 08:20:50;;;;;;;;;;;;;;;26.11;61.71;97139.19;4265090;27;5670;-68
2022/07/04 08:23:13;;;;;;;;;;;;;;;26.12;61.49;97132.69;4267656;27;5673;-68
2022/07/04 08:25:17;;;;;;;;;;;;;;;26.16;61.57;97147.25;4267877;27;5706;-68
2022/07/04 08:27:22;;;;;;;;;;;;;;;26.16;61.37;97138.31;4267452;27;5787;-68
2022/07/04 08:29:32;;;;;;;;;;;;;;;26.16;61.41;97144.53;4266762;27;5684;-67
2022/07/04 08:31:35;;;;;;;;;;;;;;;26.19;61.42;97135.88;4253015;27;5744;-68
2022/07/04 08:33:53;;;;;;;;;;;;;;;26.18;61.17;97130.75;4268668;27;5685;-68
2022/07/04 08:35:57;;;;;;;;;;;;;;;26.23;60.75;97119.84;4266914;27;6928;-68
2022/07/04 08:38:01;;;;;;;;;;;;;;;26.29;60.92;97121.44;4260283;27;5730;-68
2022/07/04 08:40:07;;;;;;;;;;;;;;;26.34;60.71;97111.31;4264189;27;5710;-68
2022/07/04 08:42:17;;;;;;;;;;;;;;;26.38;60.71;97114.28;4266514;27;5822;-68
2022/07/04 08:44:22;;;;;;;;;;;;;;;26.43;60.60;97113.44;4264390;27;5718;-68
2022/07/04 08:46:27;;;;;;;;;;;;;;;26.43;60.33;97116.97;4264560;27;5661;-68
2022/07/04 08:48:31;;;;;;;;;;;;;;;26.44;60.33;97113.16;4267638;27;5752;-68
2022/07/04 08:50:38;;;;;;;;;;;;;;;26.43;60.14;97116.97;4268196;27;5653;-68
2022/07/04 08:52:42;;;;;;;;;;;;;;;26.41;60.42;97113.75;4267395;27;5736;-68
2022/07/04 08:59:26;;;;;;;;;;;;;;;26.38;60.30;97106.16;4221619;27;5662;-69
2022/07/04 09:01:30;;;;;;;;;;;;;;;26.36;60.03;97094.78;4267438;27;5789;-68
2022/07/04 09:03:33;;;;;;;;;;;;;;;26.36;60.22;97092.06;4268010;27;5694;-66
2022/07/04 09:05:37;;;;;;;;;;;;;;;26.37;59.91;97093.72;4266806;27;5686;-68
2022/07/04 09:07:40;;;;;;;;;;;;;;;26.39;59.66;97088.84;4267329;27;5669;-69
2022/07/04 09:09:43;;;;;;;;;;;;;;;26.40;59.96;97090.44;4257148;27;5740;-68
2022/07/04 09:11:53;;;;;;;;;;;;;;;26.39;59.58;97086.94;4250874;27;5813;-69
2022/07/04 09:13:57;;;;;;;;;;;;;;;26.43;59.69;97095.28;4250349;27;5720;-68
2022/07/04 09:16:02;;;;;;;;;;;;;;;26.45;59.60;97095.78;4251426;27;5736;-68
2022/07/04 09:18:06;;;;;;;;;;;;;;;26.45;59.43;97098.50;4267350;27;5710;-68
2022/07/04 09:20:15;;;;;;;;;;;;;;;26.43;59.58;97111.53;4267733;27;5627;-68
2022/07/04 09:22:18;;;;;;;;;;;;;;;26.43;59.35;97100.69;4266616;27;5767;-68
2022/07/04 09:24:45;;;;;;;;;;;;;;;26.48;59.20;97108.75;4260552;27;5787;-68
2022/07/04 09:26:48;;;;;;;;;;;;;;;26.48;59.09;97108.75;4259202;27;5713;-68
2022/07/04 09:28:54;;;;;;;;;;;;;;;26.50;59.15;97109.28;4263906;27;5686;-68
2022/07/04 09:30:58;;;;;;;;;;;;;;;26.52;58.83;97109.81;4266506;27;5666;-68
2022/07/04 09:33:04;;;;;;;;;;;;;;;26.51;58.72;97104.69;4267100;27;5772;-68
2022/07/04 09:35:10;;;;;;;;;;;;;;;26.48;59.03;97113.38;4266463;27;5747;-68
2022/07/04 09:37:13;;;;;;;;;;;;;;;26.44;58.81;97118.56;4255267;27;5736;-68
2022/07/04 09:39:19;;;;;;;;;;;;;;;26.45;59.06;97130.22;4254914;27;5731;-68
2022/07/04 09:41:25;;;;;;;;;;;;;;;26.46;58.72;97132.66;4251394;27;5812;-68
2022/07/04 09:43:28;;;;;;;;;;;;;;;26.49;58.71;97129.34;4248813;27;5719;-68
2022/07/04 09:45:31;;;;;;;;;;;;;;;26.51;58.31;97131.81;4263994;27;5670;-68
2022/07/04 09:47:34;;;;;;;;;;;;;;;26.46;58.96;97127.22;4250270;27;5752;-68
2022/07/04 09:49:39;;;;;;;;;;;;;;;26.49;58.72;97115.00;4250252;27;5772;-68
2022/07/04 09:51:44;;;;;;;;;;;;;;;26.50;58.57;97108.47;4250113;27;5828;-69
2022/07/04 09:53:47;;;;;;;;;;;;;;;26.56;58.37;97105.44;4247832;27;5716;-68
2022/07/04 09:55:56;;;;;;;;;;;;;;;26.62;58.11;97093.44;4248780;27;5697;-68
2022/07/04 09:58:00;;;;;;;;;;;;;;;26.66;58.06;97088.25;4267493;27;5744;-68
2022/07/04 10:00:18;;;;;;;;;;;;;;;26.69;57.90;97096.59;4267004;27;5687;-68
2022/07/04 10:02:21;;;;;;;;;;;;;;;26.75;57.71;97096.56;4267382;27;5642;-68
2022/07/04 10:04:45;;;;;;;;;;;;;;;26.77;57.70;97100.59;4267063;27;5743;-68
2022/07/04 10:06:48;;;;;;;;;;;;;;;26.83;57.47;97109.47;4253585;27;5727;-68
2022/07/04 10:08:52;;;;;;;;;;;;;;;26.85;57.68;97110.00;4249815;27;5695;-68
2022/07/04 10:10:58;;;;;;;;;;;;;;;26.87;57.59;97110.50;4250072;27;7990;-68
2022/07/04 10:13:03;;;;;;;;;;;;;;;26.85;57.12;97118.13;4249381;27;5744;-68
2022/07/04 10:15:08;;;;;;;;;;;;;;;26.85;57.52;97112.72;4247528;27;5708;-68
2022/07/04 10:17:11;;;;;;;;;;;;;;;26.84;57.34;97116.50;4266972;27;6386;-68
2022/07/04 10:19:16;;;;;;;;;;;;;;;26.86;57.24;97111.63;4267018;27;5690;-68
2022/07/04 10:21:20;;;;;;;;;;;;;;;26.89;57.18;97113.75;4266841;27;5642;-68
2022/07/04 10:23:30;;;;;;;;;;;;;;;26.91;57.18;97114.25;4266647;27;5677;-68
2022/07/04 10:25:35;;;;;;;;;;;;;;;26.94;56.92;97116.38;4266606;27;5686;-68
2022/07/04 10:27:38;;;;;;;;;;;;;;;26.94;57.06;97124.50;4263118;27;5735;-68
2022/07/04 10:29:42;;;;;;;;;;;;;;;26.95;56.89;97118.00;4264554;27;5670;-68
2022/07/04 10:31:45;;;;;;;;;;;;;;;26.95;56.61;97118.00;4266634;27;5666;-68
2022/07/04 10:33:49;;;;;;;;;;;;;;;26.93;56.77;97114.75;4248159;27;5851;-68
2022/07/04 10:38:14;;;;;;;;;;;;;;;26.98;56.44;97118.25;4212174;28;5751;-68
2022/07/04 10:40:42;;;;;;;;;;;;;;;26.99;56.39;97121.75;4211782;28;5715;-68
2022/07/04 10:42:45;;;;;;;;;;;;;;;27.00;56.29;97123.38;4211401;28;6478;-68
2022/07/04 10:44:49;;;;;;;;;;;;;;;27.00;56.17;97112.50;4210355;28;5731;-68
2022/07/04 10:46:56;;;;;;;;;;;;;;;26.99;55.95;97117.13;4196491;28;5807;-68
2022/07/04 10:49:01;;;;;;;;;;;;;;;26.99;55.76;97116.31;4203665;28;5675;-68
2022/07/04 10:51:07;;;;;;;;;;;;;;;26.96;55.91;97114.19;4195580;28;5769;-68
2022/07/04 10:53:11;;;;;;;;;;;;;;;26.95;55.80;97118.78;4212026;28;5790;-68
2022/07/04 10:55:16;;;;;;;;;;;;;;;26.94;55.56;97121.81;4213017;28;5726;-68
2022/07/04 10:57:20;;;;;;;;;;;;;;;26.98;55.50;97122.84;4213076;28;5753;-69
2022/07/04 10:59:26;;;;;;;;;;;;;;;26.98;55.46;97115.53;4212061;28;5723;-68
2022/07/04 11:01:29;;;;;;;;;;;;;;;26.98;55.41;97117.44;4212552;28;5750;-68
2022/07/04 11:03:45;;;;;;;;;;;;;;;27.02;55.17;97120.38;4212485;28;5120;-68
2022/07/04 11:05:51;;;;;;;;;;;;;;;27.02;55.13;97121.19;4212903;28;5723;-69
2022/07/04 11:08:00;;;;;;;;;;;;;;;27.03;55.04;97124.72;4212197;28;5731;-69
2022/07/04 11:10:26;;;;;;;;;;;;;;;27.05;54.96;97122.50;4223995;28;5766;-69
2022/07/04 11:12:29;;;;;;;;;;;;;;;27.07;54.85;97121.16;4214729;28;6559;-69
2022/07/04 11:14:36;;;;;;;;;;;;;;;27.08;54.88;97117.34;4213631;28;5836;-74
2022/07/04 11:16:53;;;;;;;;;;;;;;;27.08;54.59;97120.03;4215014;28;5782;-74
2022/07/04 11:18:56;;;;;;;;;;;;;;;27.09;54.66;97112.72;4215108;28;5783;-74
2022/07/04 11:20:59;;;;;;;;;;;;;;;27.08;54.50;97109.19;4224793;28;5657;-74
2022/07/04 11:23:05;;;;;;;;;;;;;;;27.06;54.47;97105.94;4231789;28;5728;-74
2022/07/04 11:25:08;;;;;;;;;;;;;;;27.02;54.51;97102.19;4231477;28;5748;-74
2022/07/04 11:27:13;;;;;;;;;;;;;;;27.06;54.67;97086.13;4231771;28;5764;-75
2022/07/04 11:29:16;;;;;;;;;;;;;;;27.12;54.50;97091.22;4230460;28;5628;-74
2022/07/04 11:31:19;;;;;;;;;;;;;;;27.16;54.50;97092.25;4231930;28;5773;-75
2022/07/04 11:33:24;;;;;;;;;;;;;;;27.16;54.38;97081.38;4229719;28;5760;-74
2022/07/04 11:35:27;;;;;;;;;;;;;;;27.15;54.40;97085.19;4228262;27;5757;-74
2022/07/04 11:37:30;;;;;;;;;;;;;;;27.17;54.47;97085.72;4225112;28;5678;-74
2022/07/04 11:39:33;;;;;;;;;;;;;;;27.18;54.44;97084.63;4231816;27;5729;-74
2022/07/04 11:46:24;;;;;;;;;;;;;;;27.13;54.79;97076.56;4248599;27;5726;-74
2022/07/04 11:48:28;;;;;;;;;;;;;;;27.11;54.51;97070.63;4259924;27;5674;-74
2022/07/04 11:50:32;;;;;;;;;;;;;;;27.11;54.78;97073.31;4256558;27;5718;-75
2022/07/04 11:52:40;;;;;;;;;;;;;;;27.06;54.71;97064.44;4252786;27;5847;-74
2022/07/04 11:55:04;;;;;;;;;;;;;;;27.04;54.73;97056.59;4264540;27;5786;-74
2022/07/04 11:57:22;;;;;;;;;;;;;;;27.07;54.60;97052.47;4246720;27;5708;-74
2022/07/04 11:59:28;;;;;;;;;;;;;;;27.11;54.79;97039.97;4262256;27;5724;-74
2022/07/04 12:01:31;;;;;;;;;;;;;;;27.14;54.65;97050.22;4265662;27;5709;-74
2022/07/04 12:03:34;;;;;;;;;;;;;;;27.18;54.66;97046.66;4244366;27;5701;-74
2022/07/04 12:05:38;;;;;;;;;;;;;;;27.26;54.54;97054.09;4263462;27;5674;-74
2022/07/04 12:07:42;;;;;;;;;;;;;;;27.33;54.54;97048.31;4267006;27;6375;-74
2022/07/04 12:10:09;;;;;;;;;;;;;;;27.38;54.37;97050.94;4269720;27;5657;-74
2022/07/04 12:12:13;;;;;;;;;;;;;;;27.40;53.92;97045.22;4265085;27;5692;-74
2022/07/04 12:14:16;;;;;;;;;;;;;;;27.44;53.91;97038.91;4260699;27;5744;-74
2022/07/04 12:16:21;;;;;;;;;;;;;;;27.52;53.72;97040.13;4263775;27;5666;-74
2022/07/04 12:18:28;;;;;;;;;;;;;;;27.56;53.46;97033.03;4268085;27;5673;-74
2022/07/04 12:20:31;;;;;;;;;;;;;;;27.60;53.27;97036.75;4260321;27;5705;-74
2022/07/04 12:22:39;;;;;;;;;;;;;;;27.60;53.14;97038.66;4261447;27;5109;-74
2022/07/04 12:24:42;;;;;;;;;;;;;;;27.58;52.65;97033.53;4239909;27;5764;-75
2022/07/04 12:26:47;;;;;;;;;;;;;;;27.58;52.80;97025.38;4265650;27;5674;-75
2022/07/04 12:28:51;;;;;;;;;;;;;;;27.58;52.52;97013.72;4270083;27;5658;-74
2022/07/04 12:30:56;;;;;;;;;;;;;;;27.63;52.48;97011.72;4270145;27;6237;-74
2022/07/04 12:33:02;;;;;;;;;;;;;;;27.67;52.01;97011.97;4268290;27;5661;-75
2022/07/04 12:35:05;;;;;;;;;;;;;;;27.65;51.95;97012.28;4266990;27;5723;-74
2022/07/04 12:37:14;;;;;;;;;;;;;;;27.67;51.86;97015.50;4258492;27;5919;-73
2022/07/04 12:39:29;;;;;;;;;;;;;;;27.70;51.72;97014.88;4261736;27;5650;-73
2022/07/04 12:41:32;;;;;;;;;;;;;;;27.74;51.61;97002.31;4243912;27;5695;-73
2022/07/04 12:43:46;;;;;;;;;;;;;;;27.80;51.64;97009.28;4267400;27;8378;-73
2022/07/04 12:45:51;;;;;;;;;;;;;;;27.83;51.38;96997.81;4265944;27;5658;-73
2022/07/04 12:47:54;;;;;;;;;;;;;;;27.87;51.24;97002.66;4266151;27;5780;-73
2022/07/04 12:49:59;;;;;;;;;;;;;;;27.95;51.21;97002.75;4267230;27;5678;-73
2022/07/04 12:52:07;;;;;;;;;;;;;;;27.99;51.35;97001.06;4260773;27;5767;-73
2022/07/04 12:54:11;;;;;;;;;;;;;;;27.99;51.26;96995.63;4256361;27;5682;-73
2022/07/04 12:56:29;;;;;;;;;;;;;;;28.03;51.12;97001.28;4255355;27;5087;-73
2022/07/04 12:58:31;;;;;;;;;;;;;;;28.02;51.14;97000.47;4259324;27;5726;-73
2022/07/04 13:00:34;;;;;;;;;;;;;;;28.02;50.98;97000.47;4262091;27;5731;-73
2022/07/04 13:02:38;;;;;;;;;;;;;;;28.02;51.17;96995.03;4257939;27;5677;-73
2022/07/04 13:04:41;;;;;;;;;;;;;;;28.02;51.01;96996.94;4243219;27;5740;-73
2022/07/04 13:06:46;;;;;;;;;;;;;;;27.98;50.95;96993.22;4237165;27;5802;-73
2022/07/04 13:08:49;;;;;;;;;;;;;;;27.99;50.92;96994.84;4255534;27;5812;-74
2022/07/04 13:12:24;;;;;;;;;;;;;;;27.98;50.60;96985.06;4259005;27;5791;-74
2022/07/04 13:13:16;;;;;;;;;;;;;;;28.02;50.72;96988.78;4258505;27;6316;-73
2022/07/04 13:15:19;;;;;;;;;;;;;;;28.04;50.38;96984.66;4263400;27;7062;-74
2022/07/04 13:17:22;;;;;;;;;;;;;;;28.06;50.19;96979.72;4256767;27;5779;-74
2022/07/04 13:19:26;;;;;;;;;;;;;;;28.09;50.07;96978.34;4264400;27;6552;-74
2022/07/04 13:21:29;;;;;;;;;;;;;;;28.13;49.85;96980.16;4253597;27;5851;-74
2022/07/04 13:23:34;;;;;;;;;;;;;;;28.16;49.67;96973.28;4252075;27;5736;-74
2022/07/04 13:25:37;;;;;;;;;;;;;;;28.15;49.76;96971.69;4262939;27;5670;-74
2022/07/04 13:27:40;;;;;;;;;;;;;;;28.16;49.60;96976.00;4256544;27;5840;-74
2022/07/04 13:29:43;;;;;;;;;;;;;;;28.20;49.54;96982.47;4254507;27;5714;-74
2022/07/04 13:31:47;;;;;;;;;;;;;;;28.25;49.31;96978.84;4263257;27;5723;-74
2022/07/04 13:33:50;;;;;;;;;;;;;;;28.27;49.43;96974.72;4254391;27;5727;-74
2022/07/04 13:35:53;;;;;;;;;;;;;;;28.27;49.78;96974.72;4254575;27;6363;-74
2022/07/04 13:37:56;;;;;;;;;;;;;;;28.30;49.27;96968.69;4258268;27;5674;-74
2022/07/04 13:40:06;;;;;;;;;;;;;;;28.31;49.19;96975.72;4263698;27;5711;-74
2022/07/04 13:42:09;;;;;;;;;;;;;;;28.29;49.17;96972.50;4259515;27;5723;-74
2022/07/04 13:44:15;;;;;;;;;;;;;;;28.28;49.45;96979.06;4263481;27;5918;-74
2022/07/04 13:46:18;;;;;;;;;;;;;;;28.29;49.69;96971.72;4265759;27;5686;-75
2022/07/04 13:48:21;;;;;;;;;;;;;;;28.25;50.01;96971.50;4266840;27;5689;-73
2022/07/04 13:50:24;;;;;;;;;;;;;;;28.16;49.92;96967.84;4248792;27;5709;-74
2022/07/04 13:52:28;;;;;;;;;;;;;;;28.10;50.38;96975.31;4267351;27;5723;-74
2022/07/04 13:54:31;;;;;;;;;;;;;;;28.10;50.58;96979.94;4267150;27;5679;-74
2022/07/04 13:56:36;;;;;;;;;;;;;;;28.12;50.62;96988.59;4267192;27;5131;-73
2022/07/04 13:58:40;;;;;;;;;;;;;;;28.12;50.84;96988.59;4256477;27;6422;-74
2022/07/04 14:00:44;;;;;;;;;;;;;;;28.13;50.92;96988.31;4250176;27;5748;-74
2022/07/04 14:02:48;;;;;;;;;;;;;;;28.13;50.91;96980.16;4253873;27;5690;-74
2022/07/04 14:04:51;;;;;;;;;;;;;;;28.15;50.71;96988.00;4266186;27;5670;-74
2022/07/04 14:06:54;;;;;;;;;;;;;;;28.17;50.96;96995.84;4266551;27;5725;-73
2022/07/04 14:08:57;;;;;;;;;;;;;;;28.19;50.86;96997.16;4243219;27;5763;-74
2022/07/04 14:11:00;;;;;;;;;;;;;;;28.23;50.98;97008.25;4264302;27;5793;-74
2022/07/04 14:13:04;;;;;;;;;;;;;;;28.26;51.17;97003.00;4259077;27;5723;-74
2022/07/04 14:15:13;;;;;;;;;;;;;;;28.30;50.95;97006.75;4249733;27;5621;-73
2022/07/04 14:17:16;;;;;;;;;;;;;;;28.32;50.86;97009.19;4264016;27;5674;-74
2022/07/04 14:19:39;;;;;;;;;;;;;;;28.32;50.87;96996.41;4260699;27;5735;-73
2022/07/04 14:21:42;;;;;;;;;;;;;;;28.32;50.64;96995.59;4258180;27;5682;-73
2022/07/04 14:23:45;;;;;;;;;;;;;;;28.31;50.68;96997.47;4238710;27;6472;-74
2022/07/04 14:25:48;;;;;;;;;;;;;;;28.29;50.66;96994.25;4255045;27;5670;-73
2022/07/04 14:27:53;;;;;;;;;;;;;;;28.28;50.67;96989.13;4260454;27;5731;-73
2022/07/04 14:29:57;;;;;;;;;;;;;;;28.26;50.70;96996.75;4240844;27;5701;-74
2022/07/04 14:32:00;;;;;;;;;;;;;;;28.25;50.66;96989.72;4266826;27;5666;-74
2022/07/04 14:34:05;;;;;;;;;;;;;;;28.24;50.71;96985.38;4254340;27;5697;-73
2022/07/04 14:36:09;;;;;;;;;;;;;;;28.20;50.67;96977.03;4252069;27;5749;-73
2022/07/04 14:38:13;;;;;;;;;;;;;;;28.17;50.67;96983.06;4259648;27;5119;-73
2022/07/04 14:40:18;;;;;;;;;;;;;;;28.16;50.79;96976.00;4262204;27;5613;-73
2022/07/04 14:42:20;;;;;;;;;;;;;;;28.14;50.61;96954.56;4263637;27;5659;-73
2022/07/04 14:44:24;;;;;;;;;;;;;;;28.12;50.73;96961.44;4263562;27;5670;-73
2022/07/04 14:46:28;;;;;;;;;;;;;;;28.10;50.65;96969.09;4225648;27;5767;-73
2022/07/04 14:48:31;;;;;;;;;;;;;;;28.09;50.78;96967.47;4232667;28;5772;-73
2022/07/04 14:50:34;;;;;;;;;;;;;;;28.06;50.90;96973.50;4233478;28;5749;-73
2022/07/04 14:52:37;;;;;;;;;;;;;;;28.02;50.76;96973.28;4234635;28;6322;-73
2022/07/04 14:54:40;;;;;;;;;;;;;;;27.98;50.94;96968.78;4235079;28;5654;-73
2022/07/04 14:56:43;;;;;;;;;;;;;;;27.98;51.04;96977.72;4233998;28;5661;-73
2022/07/04 14:58:47;;;;;;;;;;;;;;;27.99;50.93;96978.53;4234165;28;5638;-73
2022/07/04 15:00:50;;;;;;;;;;;;;;;27.99;50.83;96979.34;4234046;28;5673;-73
2022/07/04 15:02:54;;;;;;;;;;;;;;;28.01;50.85;96979.03;4234506;27;5781;-73